Time;durP1;ratioP1;P1;durP2;ratioP2;P2;SDS_P1;SDS_P2;PMS_P1;PMS_P2;Temp;Humidity;BMP_temperature;BMP_pressure;BME280_temperature;BME280_humidity;BME280_pressure;Samples;Min_cycle;Max_cycle;Signal;HPM_P1;HPM_P2
2024/04/07 00:02:03;;;;;;;14.50;3.13;;;;;;;9.31;75.47;98180.81;5035553;28;20069;-62
2024/04/07 00:04:29;;;;;;;10.07;1.83;;;;;;;9.27;75.52;98175.28;5040535;28;20044;-62
2024/04/07 00:06:55;;;;;;;11.38;2.25;;;;;;;9.26;75.53;98172.94;5050041;28;20815;-62
2024/04/07 00:09:21;;;;;;;10.57;2.58;;;;;;;9.25;75.74;98190.66;5040834;28;20037;-62
2024/04/07 00:11:48;;;;;;;13.23;2.45;;;;;;;9.25;75.83;98201.72;5045441;28;20045;-62
2024/04/07 00:14:15;;;;;;;7.80;3.40;;;;;;;9.25;75.93;98196.97;5047885;28;20057;-62
2024/04/07 00:16:41;;;;;;;23.13;3.78;;;;;;;9.24;75.99;98214.72;5050105;28;20681;-64
2024/04/07 00:19:08;;;;;;;10.65;3.42;;;;;;;9.24;75.96;98197.41;5042073;28;20053;-62
2024/04/07 00:21:35;;;;;;;14.88;2.20;;;;;;;9.23;75.88;98212.38;5049185;28;20044;-63
2024/04/07 00:24:01;;;;;;;14.63;2.75;;;;;;;9.23;75.78;98228.94;5041309;28;20515;-63
2024/04/07 00:26:27;;;;;;;9.35;1.90;;;;;;;9.23;75.72;98234.47;5044871;28;20068;-62
2024/04/07 00:28:53;;;;;;;11.40;1.80;;;;;;;9.21;75.63;98236.84;5048094;28;20040;-63
2024/04/07 00:31:20;;;;;;;10.80;2.72;;;;;;;9.17;75.60;98239.59;5043262;28;20059;-63
2024/04/07 00:33:46;;;;;;;9.30;1.88;;;;;;;9.17;75.47;98247.88;5036891;28;20414;-63
2024/04/07 00:36:12;;;;;;;9.68;2.17;;;;;;;9.15;75.32;98262.09;5046245;28;20057;-63
2024/04/07 00:38:39;;;;;;;11.98;2.40;;;;;;;9.13;75.44;98269.19;5045149;28;20056;-63
2024/04/07 00:41:06;;;;;;;9.80;2.95;;;;;;;9.12;75.29;98279.44;5049660;28;20893;-63
2024/04/07 00:43:32;;;;;;;17.20;2.28;;;;;;;9.10;75.19;98276.28;5050369;28;20056;-63
2024/04/07 00:45:58;;;;;;;9.90;2.20;;;;;;;9.06;75.04;98269.97;5049537;28;20045;-63
2024/04/07 00:48:25;;;;;;;13.07;2.05;;;;;;;9.06;75.23;98269.16;5049396;28;20521;-63
2024/04/07 00:50:55;;;;;;;7.43;1.98;;;;;;;9.04;75.19;98277.84;5036033;28;20053;-63
2024/04/07 00:53:21;;;;;;;8.27;2.25;;;;;;;9.00;75.27;98277.06;5049580;28;20052;-63
2024/04/07 00:55:48;;;;;;;10.77;2.30;;;;;;;9.00;75.42;98282.56;5045347;28;20537;-63
2024/04/07 00:58:16;;;;;;;15.15;2.28;;;;;;;9.00;74.93;98274.28;5043202;28;20056;-64
2024/04/07 01:00:44;;;;;;;12.75;2.33;;;;;;;9.00;75.29;98276.28;5047234;28;20049;-63
2024/04/07 01:03:12;;;;;;;8.73;1.83;;;;;;;8.98;75.21;98271.16;5049253;28;20506;-63
2024/04/07 01:05:47;;;;;;;16.02;2.65;;;;;;;8.99;75.21;98274.69;5047787;28;20040;-63
2024/04/07 01:08:15;;;;;;;6.80;2.67;;;;;;;8.96;75.32;98290.06;5044714;28;20052;-63
2024/04/07 01:10:43;;;;;;;13.27;3.25;;;;;;;8.96;75.46;98276.28;5035426;28;20052;-63
2024/04/07 01:13:10;;;;;;;9.15;2.08;;;;;;;8.98;75.40;98295.19;5045143;28;20055;-63
2024/04/07 01:15:37;;;;;;;18.88;2.70;;;;;;;8.97;75.55;98275.09;5033749;28;20052;-63
2024/04/07 01:18:04;;;;;;;10.82;2.30;;;;;;;8.98;75.54;98273.09;5041772;28;20399;-63
2024/04/07 01:20:32;;;;;;;11.13;2.60;;;;;;;8.99;75.63;98263.66;5033068;28;20044;-63
2024/04/07 01:22:59;;;;;;;15.93;4.38;;;;;;;8.98;75.60;98248.28;5036291;28;20056;-63
2024/04/07 01:25:25;;;;;;;11.55;2.75;;;;;;;8.97;75.78;98272.34;5034184;28;20048;-63
2024/04/07 01:28:00;;;;;;;14.27;3.33;;;;;;;8.97;76.07;98269.59;5042994;28;20406;-63
2024/04/07 01:30:28;;;;;;;17.85;4.00;;;;;;;8.99;76.05;98261.69;5048304;28;20048;-63
2024/04/07 01:32:54;;;;;;;13.93;4.03;;;;;;;9.00;76.10;98271.53;5045642;28;20843;-63
2024/04/07 01:35:21;;;;;;;10.40;2.95;;;;;;;9.01;76.17;98278.63;5048422;28;20048;-62
2024/04/07 01:37:47;;;;;;;14.63;3.40;;;;;;;9.00;76.16;98273.53;5045762;28;20699;-63
2024/04/07 01:40:14;;;;;;;14.52;2.33;;;;;;;9.00;76.19;98271.53;5045981;28;20063;-62
2024/04/07 01:42:41;;;;;;;14.25;3.03;;;;;;;9.01;76.22;98269.56;5041218;28;20052;-62
2024/04/07 01:45:10;;;;;;;22.55;2.90;;;;;;;9.01;76.28;98262.09;5045710;28;20056;-62
2024/04/07 01:47:37;;;;;;;20.10;4.50;;;;;;;9.02;76.06;98277.47;5040053;28;20449;-62
2024/04/07 01:50:04;;;;;;;13.35;2.47;;;;;;;9.03;76.26;98265.22;5047657;28;20044;-62
2024/04/07 01:52:31;;;;;;;13.88;2.95;;;;;;;9.02;76.34;98260.13;5044961;28;20048;-62
2024/04/07 01:54:57;;;;;;;14.20;3.08;;;;;;;9.00;76.49;98268.78;5042464;28;20091;-62
2024/04/07 01:57:23;;;;;;;17.52;3.92;;;;;;;9.02;76.40;98262.88;5044678;28;20051;-63
2024/04/07 01:59:50;;;;;;;13.38;2.63;;;;;;;9.04;76.37;98269.56;5048176;28;20757;-63
2024/04/07 02:02:19;;;;;;;16.02;2.88;;;;;;;9.05;76.36;98257.34;5031479;28;20511;-63
2024/04/07 02:04:46;;;;;;;15.95;3.17;;;;;;;9.06;76.36;98275.47;5040380;28;20414;-62
2024/04/07 02:07:13;;;;;;;7.78;2.28;;;;;;;9.05;76.38;98273.88;5043074;28;20131;-62
2024/04/07 02:09:40;;;;;;;15.75;3.53;;;;;;;9.07;76.50;98274.31;5044384;28;20462;-62
2024/04/07 02:12:07;;;;;;;18.83;4.28;;;;;;;9.09;76.46;98273.91;5048029;28;21295;-63
2024/04/07 02:14:33;;;;;;;19.77;4.18;;;;;;;9.09;76.59;98266.41;5045034;28;20434;-62
2024/04/07 02:17:01;;;;;;;22.58;3.95;;;;;;;9.09;76.69;98266.41;5047683;28;20045;-62
2024/04/07 02:19:27;;;;;;;17.15;2.95;;;;;;;9.10;76.75;98273.53;5044603;28;20052;-63
2024/04/07 02:21:53;;;;;;;15.40;5.03;;;;;;;9.11;76.81;98286.13;5046442;28;20064;-62
2024/04/07 02:24:20;;;;;;;11.25;3.40;;;;;;;9.13;76.91;98283.75;5034844;28;20063;-62
2024/04/07 02:26:46;;;;;;;13.73;2.58;;;;;;;9.16;76.70;98280.19;5047880;28;20047;-62
2024/04/07 02:29:13;;;;;;;11.68;2.90;;;;;;;9.19;76.70;98284.94;5039410;28;20052;-62
2024/04/07 02:31:40;;;;;;;18.35;3.65;;;;;;;9.18;76.75;98299.94;5040648;28;20053;-62
2024/04/07 02:34:08;;;;;;;9.15;1.85;;;;;;;9.15;76.97;98300.72;5046604;28;20052;-63
2024/04/07 02:36:34;;;;;;;8.70;1.83;;;;;;;9.13;77.10;98296.78;5037722;28;20052;-64
2024/04/07 02:39:02;;;;;;;9.38;2.05;;;;;;;9.11;77.42;98297.16;5048304;28;20049;-62
2024/04/07 02:41:28;;;;;;;10.20;1.45;;;;;;;9.12;77.38;98306.22;5045337;28;20475;-62
2024/04/07 02:43:54;;;;;;;9.80;1.17;;;;;;;9.11;77.60;98283.34;5045995;28;20080;-62
2024/04/07 02:49:05;;;;;;;5.00;1.70;;;;;;;9.08;77.98;98281.38;5042574;28;20474;-63
2024/04/07 02:51:31;;;;;;;7.88;1.42;;;;;;;9.06;78.15;98286.53;5048537;28;20075;-63
2024/04/07 02:53:58;;;;;;;6.35;1.42;;;;;;;9.03;78.09;98287.31;5037777;28;20407;-62
2024/04/07 02:56:24;;;;;;;5.95;1.25;;;;;;;9.00;78.39;98276.28;5043397;28;20450;-62
2024/04/07 02:58:50;;;;;;;11.10;1.35;;;;;;;8.98;78.35;98276.66;5029028;28;20415;-62
2024/04/07 03:01:16;;;;;;;5.53;1.00;;;;;;;8.99;78.58;98292.03;5119813;22;20052;-62
2024/04/07 03:03:45;;;;;;;3.22;0.90;;;;;;;8.96;78.49;98264.44;5045161;28;20691;-61
2024/04/07 03:06:12;;;;;;;8.93;2.70;;;;;;;8.91;78.66;98268.41;5048243;28;20062;-61
2024/04/07 03:08:39;;;;;;;2.47;0.80;;;;;;;8.86;78.59;98262.47;5044745;28;20064;-62
2024/04/07 03:11:07;;;;;;;5.22;0.75;;;;;;;8.80;78.44;98256.56;5028105;28;20707;-62
2024/04/07 03:13:34;;;;;;;3.08;0.75;;;;;;;8.77;78.61;98264.81;5027759;28;20052;-62
2024/04/07 03:16:09;;;;;;;2.63;0.80;;;;;;;8.72;78.61;98266.00;5011581;28;20060;-62
2024/04/07 03:18:36;;;;;;;2.88;1.77;;;;;;;8.69;78.80;98277.03;5028993;28;20052;-62
2024/04/07 03:21:03;;;;;;;5.18;1.60;;;;;;;8.63;78.74;98273.09;5047420;28;20037;-61
2024/04/07 03:23:30;;;;;;;5.45;0.98;;;;;;;8.59;78.95;98262.06;5048889;28;20060;-62
2024/04/07 03:25:56;;;;;;;5.65;0.90;;;;;;;8.56;79.16;98268.34;5027950;28;20056;-62
2024/04/07 03:28:23;;;;;;;5.80;1.02;;;;;;;8.54;79.15;98270.72;5038312;28;20056;-61
2024/04/07 03:30:52;;;;;;;5.57;1.00;;;;;;;8.50;79.34;98264.41;5029276;28;20414;-61
2024/04/07 03:33:18;;;;;;;4.28;0.63;;;;;;;8.47;79.32;98262.44;5035890;28;20521;-61
2024/04/07 03:35:44;;;;;;;5.50;0.70;;;;;;;8.45;79.46;98279.38;5028677;28;20743;-61
2024/04/07 03:38:11;;;;;;;6.93;2.05;;;;;;;8.42;79.87;98268.31;5036857;28;20059;-61
2024/04/07 03:40:38;;;;;;;4.72;1.00;;;;;;;8.40;79.83;98262.41;5027967;28;20037;-62
2024/04/07 03:43:05;;;;;;;4.97;0.80;;;;;;;8.41;79.84;98250.22;5035890;28;20048;-62
2024/04/07 03:45:31;;;;;;;4.22;1.13;;;;;;;8.40;79.98;98251.38;5038572;28;20057;-61
2024/04/07 03:47:57;;;;;;;2.35;0.80;;;;;;;8.41;79.87;98261.25;5028006;28;20053;-62
2024/04/07 03:50:24;;;;;;;6.85;1.42;;;;;;;8.41;80.14;98255.72;5025760;28;20049;-64
2024/04/07 03:52:50;;;;;;;5.60;1.23;;;;;;;8.40;80.11;98265.19;5027153;28;20053;-62
2024/04/07 03:55:16;;;;;;;7.75;1.45;;;;;;;8.41;80.15;98251.00;5028609;28;20045;-61
2024/04/07 03:57:43;;;;;;;6.72;1.00;;;;;;;8.41;80.37;98264.81;5036391;28;20046;-61
2024/04/07 04:00:10;;;;;;;5.78;0.80;;;;;;;8.44;80.39;98264.03;5027558;28;20449;-63
2024/04/07 04:02:36;;;;;;;5.35;1.05;;;;;;;8.46;80.45;98261.66;5027732;28;20052;-62
2024/04/07 04:05:04;;;;;;;6.55;1.30;;;;;;;8.46;80.60;98256.13;5034708;28;20055;-62
2024/04/07 04:07:31;;;;;;;4.05;1.42;;;;;;;8.46;80.73;98260.84;5030271;28;20419;-62
2024/04/07 04:09:59;;;;;;;7.57;1.30;;;;;;;8.44;80.81;98266.78;5012201;28;20044;-62
2024/04/07 04:12:28;;;;;;;7.10;1.85;;;;;;;8.44;81.07;98253.00;5033227;28;20056;-62
2024/04/07 04:14:56;;;;;;;4.53;0.98;;;;;;;8.45;81.03;98262.03;5032102;28;20506;-62
2024/04/07 04:17:24;;;;;;;6.63;1.00;;;;;;;8.45;81.48;98257.31;5026453;28;20072;-61
2024/04/07 04:19:51;;;;;;;11.63;1.10;;;;;;;8.44;81.39;98260.47;5014768;28;20049;-62
2024/04/07 04:22:18;;;;;;;4.28;1.00;;;;;;;8.46;81.46;98258.09;5030131;28;20057;-62
2024/04/07 04:24:44;;;;;;;5.85;0.95;;;;;;;8.48;81.41;98266.75;5030569;28;20045;-62
2024/04/07 04:27:11;;;;;;;8.88;1.08;;;;;;;8.51;81.44;98277.81;5031178;28;20056;-62
2024/04/07 04:29:37;;;;;;;5.28;1.08;;;;;;;8.52;81.40;98273.84;5030844;28;20045;-62
2024/04/07 04:32:04;;;;;;;6.13;1.20;;;;;;;8.51;81.25;98274.25;5021517;28;20049;-61
2024/04/07 04:34:34;;;;;;;4.32;0.95;;;;;;;8.52;81.65;98275.84;5031243;28;20052;-62
2024/04/07 04:37:01;;;;;;;6.82;1.02;;;;;;;8.52;81.88;98273.09;5047425;28;20057;-62
2024/04/07 04:39:27;;;;;;;2.00;0.80;;;;;;;8.52;81.83;98289.63;5018681;28;20053;-62
2024/04/07 04:41:53;;;;;;;4.35;0.82;;;;;;;8.55;82.11;98277.81;5041157;28;20057;-61
2024/04/07 04:44:20;;;;;;;8.48;1.65;;;;;;;8.57;82.17;98292.81;5036177;28;20649;-61
2024/04/07 04:46:48;;;;;;;4.72;0.70;;;;;;;8.59;82.17;98284.13;5031803;28;20044;-63
2024/04/07 04:49:15;;;;;;;5.82;1.23;;;;;;;8.61;82.44;98284.50;5030855;28;20064;-61
2024/04/07 04:51:42;;;;;;;5.95;1.73;;;;;;;8.62;82.37;98255.75;5030636;28;20049;-62
2024/04/07 04:54:10;;;;;;;7.60;1.10;;;;;;;8.63;82.24;98287.66;5031125;28;20549;-61
2024/04/07 04:56:37;;;;;;;6.47;0.98;;;;;;;8.64;82.21;98293.97;5030924;28;20053;-62
2024/04/07 04:59:04;;;;;;;5.57;1.00;;;;;;;8.64;82.29;98274.66;5033960;28;20052;-62
2024/04/07 05:01:30;;;;;;;8.85;1.00;;;;;;;8.62;82.25;98299.91;5022843;28;20057;-62
2024/04/07 05:03:57;;;;;;;3.78;0.90;;;;;;;8.61;82.15;98289.22;5041775;28;20053;-62
2024/04/07 05:06:24;;;;;;;7.28;1.30;;;;;;;8.58;82.28;98288.84;5017617;28;20053;-61
2024/04/07 05:08:51;;;;;;;3.42;0.90;;;;;;;8.56;82.35;98291.22;5029869;28;20638;-62
2024/04/07 05:11:17;;;;;;;4.50;0.85;;;;;;;8.53;82.25;98286.47;5030811;28;20107;-62
2024/04/07 05:13:44;;;;;;;4.13;1.08;;;;;;;8.51;82.23;98299.06;5028038;28;20045;-63
2024/04/07 05:16:10;;;;;;;2.85;0.70;;;;;;;8.48;82.32;98306.16;5030184;28;20429;-61
2024/04/07 05:18:37;;;;;;;4.68;0.85;;;;;;;8.46;82.30;98307.72;5026672;28;20567;-62
2024/04/07 05:21:05;;;;;;;3.60;0.40;;;;;;;8.43;82.34;98308.50;5032667;28;20410;-61
2024/04/07 05:23:42;;;;;;;2.40;0.85;;;;;;;8.41;82.38;98328.22;5029379;28;20045;-62
2024/04/07 05:26:12;;;;;;;2.10;0.57;;;;;;;8.40;82.35;98317.56;5016424;28;20053;-62
2024/04/07 05:28:39;;;;;;;5.18;0.85;;;;;;;8.38;82.11;98322.69;5046838;28;20072;-62
2024/04/07 05:31:15;;;;;;;0.77;0.28;;;;;;;8.35;82.22;98317.94;5029987;28;20076;-61
2024/04/07 05:33:46;;;;;;;2.90;0.52;;;;;;;8.32;82.24;98329.75;5030051;28;20511;-61
2024/04/07 05:36:12;;;;;;;2.53;0.40;;;;;;;8.31;82.32;98328.19;5032484;28;20045;-62
2024/04/07 05:38:40;;;;;;;12.10;1.70;;;;;;;8.29;82.32;98349.81;5030093;28;20407;-62
2024/04/07 05:41:06;;;;;;;1.75;0.70;;;;;;;8.28;82.47;98362.81;5029182;28;20049;-61
2024/04/07 05:43:34;;;;;;;4.18;0.57;;;;;;;8.27;82.59;98357.69;5029929;28;20041;-62
2024/04/07 05:46:08;;;;;;;1.58;0.60;;;;;;;8.25;82.66;98360.00;5020462;28;20076;-62
2024/04/07 05:48:35;;;;;;;3.47;0.73;;;;;;;8.24;82.81;98361.97;5026162;28;20060;-64
2024/04/07 05:51:05;;;;;;;2.08;0.70;;;;;;;8.24;82.71;98366.69;5031623;28;20074;-61
2024/04/07 05:53:31;;;;;;;5.03;0.55;;;;;;;8.24;83.01;98377.72;5034643;28;20053;-62
2024/04/07 05:55:57;;;;;;;4.80;1.60;;;;;;;8.23;83.25;98381.66;5028020;28;20044;-62
2024/04/07 05:58:24;;;;;;;4.78;0.90;;;;;;;8.21;83.46;98373.78;5029856;28;20410;-62
2024/04/07 06:00:52;;;;;;;6.82;0.80;;;;;;;8.22;83.35;98380.06;5027981;28;20494;-62
2024/04/07 06:03:18;;;;;;;5.43;1.05;;;;;;;8.22;83.36;98388.34;5029073;28;20056;-62
2024/04/07 06:05:44;;;;;;;2.28;0.93;;;;;;;8.21;83.77;98400.53;5021035;28;20533;-62
2024/04/07 06:08:11;;;;;;;3.60;0.75;;;;;;;8.22;83.65;98393.84;5024299;28;20426;-62
2024/04/07 06:10:38;;;;;;;8.57;1.45;;;;;;;8.23;83.81;98389.94;5029970;28;20037;-61
2024/04/07 06:13:05;;;;;;;7.63;1.27;;;;;;;8.24;83.87;98392.28;5033128;28;20048;-62
2024/04/07 06:15:32;;;;;;;5.25;0.85;;;;;;;8.25;83.83;98390.34;5036472;28;20073;-62
2024/04/07 06:17:58;;;;;;;6.07;1.42;;;;;;;8.26;83.91;98402.94;5029316;28;20415;-64
2024/04/07 06:20:25;;;;;;;6.47;0.95;;;;;;;8.28;83.87;98397.88;5028308;28;20505;-62
2024/04/07 06:22:51;;;;;;;5.50;1.30;;;;;;;8.29;83.78;98393.91;5028857;28;20525;-61
2024/04/07 06:25:17;;;;;;;12.27;2.53;;;;;;;8.31;84.02;98399.84;5030666;28;20053;-61
2024/04/07 06:27:44;;;;;;;10.48;1.70;;;;;;;8.33;83.95;98398.28;5030034;28;20777;-62
2024/04/07 06:30:10;;;;;;;6.70;1.88;;;;;;;8.36;83.99;98408.53;5029300;28;20049;-62
2024/04/07 06:32:36;;;;;;;5.90;1.45;;;;;;;8.39;83.74;98407.75;5030186;28;20052;-62
2024/04/07 06:35:03;;;;;;;11.82;1.02;;;;;;;8.43;83.63;98405.81;5029466;28;20056;-62
2024/04/07 06:37:29;;;;;;;6.18;1.23;;;;;;;8.46;83.65;98429.06;5033279;28;20057;-61
2024/04/07 06:39:56;;;;;;;16.23;2.92;;;;;;;8.48;83.81;98437.72;5044937;28;20486;-61
2024/04/07 06:42:30;;;;;;;9.52;1.08;;;;;;;8.53;83.81;98443.66;5028953;28;20509;-61
2024/04/07 06:44:59;;;;;;;14.13;1.65;;;;;;;8.60;83.54;98440.16;5025696;28;20041;-61
2024/04/07 06:47:27;;;;;;;5.32;1.13;;;;;;;8.69;83.43;98457.13;5027980;28;20037;-60
2024/04/07 06:49:55;;;;;;;7.63;1.52;;;;;;;8.73;83.32;98455.19;5010733;28;20041;-61
2024/04/07 06:52:22;;;;;;;15.45;2.45;;;;;;;8.77;83.00;98455.97;5030389;28;20044;-62
2024/04/07 06:54:49;;;;;;;5.07;1.55;;;;;;;8.78;83.06;98474.13;5029714;28;20532;-61
2024/04/07 06:57:17;;;;;;;6.47;1.50;;;;;;;8.81;82.87;98456.00;5028512;28;20445;-61
2024/04/07 06:59:43;;;;;;;5.40;1.20;;;;;;;8.82;82.88;98474.91;5046402;28;20057;-61
2024/04/07 07:02:09;;;;;;;6.25;2.47;;;;;;;8.82;82.68;98474.91;5048939;28;20067;-61
2024/04/07 07:04:35;;;;;;;8.30;1.38;;;;;;;8.86;82.46;98484.00;5034493;28;20424;-63
2024/04/07 07:07:02;;;;;;;6.43;1.30;;;;;;;8.88;82.38;98500.94;5028602;28;20033;-61
2024/04/07 07:09:29;;;;;;;4.10;1.00;;;;;;;8.89;82.15;98491.50;5016835;28;20056;-61
2024/04/07 07:11:55;;;;;;;7.22;1.15;;;;;;;8.93;82.03;98497.03;5040133;28;20048;-61
2024/04/07 07:14:22;;;;;;;10.48;1.95;;;;;;;8.95;81.95;98500.97;5025973;28;20056;-61
2024/04/07 07:16:49;;;;;;;7.93;1.60;;;;;;;8.99;81.88;98499.03;5021360;28;20059;-61
2024/04/07 07:19:15;;;;;;;3.28;1.75;;;;;;;9.00;81.62;98508.09;5022238;28;20060;-61
2024/04/07 07:21:42;;;;;;;8.05;1.85;;;;;;;9.03;81.61;98497.06;5028857;28;20048;-60
2024/04/07 07:24:09;;;;;;;6.70;2.70;;;;;;;9.06;81.47;98507.31;5038314;28;20514;-61
2024/04/07 07:26:35;;;;;;;6.88;1.23;;;;;;;9.10;81.27;98502.63;5028165;28;20054;-61
2024/04/07 07:29:03;;;;;;;4.32;1.40;;;;;;;9.12;81.10;98510.50;5028301;28;20083;-62
2024/04/07 07:31:30;;;;;;;3.65;0.70;;;;;;;9.14;80.74;98500.66;5026714;28;20083;-62
2024/04/07 07:33:56;;;;;;;6.95;0.93;;;;;;;9.18;80.82;98520.78;5024012;28;20060;-62
2024/04/07 07:36:23;;;;;;;3.47;1.10;;;;;;;9.21;80.96;98523.94;5013173;28;20048;-62
2024/04/07 07:38:49;;;;;;;15.50;3.03;;;;;;;9.25;80.97;98519.22;5033231;28;20049;-62
2024/04/07 07:41:18;;;;;;;11.25;1.92;;;;;;;9.28;80.96;98519.22;5033898;28;20048;-62
2024/04/07 07:43:45;;;;;;;4.63;2.38;;;;;;;9.33;80.97;98518.84;5031785;28;20053;-62
2024/04/07 07:46:11;;;;;;;8.50;1.65;;;;;;;9.37;80.72;98530.66;5046487;28;20057;-63
2024/04/07 07:48:39;;;;;;;7.10;0.93;;;;;;;9.41;80.77;98527.94;5032893;28;20049;-62
2024/04/07 07:51:10;;;;;;;8.50;1.30;;;;;;;9.43;80.61;98534.63;5045343;28;20059;-60
2024/04/07 07:53:37;;;;;;;9.73;1.17;;;;;;;9.47;80.51;98527.16;5035950;28;20410;-60
2024/04/07 07:56:08;;;;;;;9.27;1.10;;;;;;;9.51;80.09;98522.44;5027233;28;20053;-62
2024/04/07 07:58:37;;;;;;;2.50;1.00;;;;;;;9.56;80.17;98529.53;5028288;28;20379;-61
2024/04/07 08:01:05;;;;;;;4.25;0.80;;;;;;;9.60;80.00;98522.84;5041096;28;20048;-62
2024/04/07 08:03:32;;;;;;;11.27;1.52;;;;;;;9.65;79.91;98532.72;5022878;28;20419;-62
2024/04/07 08:06:00;;;;;;;3.55;0.80;;;;;;;9.70;79.47;98551.66;5043502;28;20061;-61
2024/04/07 08:08:26;;;;;;;2.60;0.75;;;;;;;9.77;79.07;98548.91;5040587;28;20064;-61
2024/04/07 08:10:53;;;;;;;2.40;0.90;;;;;;;9.83;79.50;98550.09;5028211;28;20502;-61
2024/04/07 08:13:19;;;;;;;7.80;1.00;;;;;;;9.90;79.24;98550.09;5029386;28;20095;-62
2024/04/07 08:15:46;;;;;;;5.50;0.90;;;;;;;9.97;78.80;98552.88;5031906;28;20115;-61
2024/04/07 08:18:13;;;;;;;9.65;1.20;;;;;;;10.04;78.69;98558.41;5030954;28;20419;-60
2024/04/07 08:20:41;;;;;;;3.80;0.98;;;;;;;10.10;78.55;98565.13;5020846;28;20048;-61
2024/04/07 08:23:09;;;;;;;11.50;1.33;;;;;;;10.18;78.70;98550.16;5030641;28;20048;-62
2024/04/07 08:25:36;;;;;;;3.30;0.82;;;;;;;10.27;78.59;98552.53;5030588;28;20406;-63
2024/04/07 08:28:06;;;;;;;4.13;1.00;;;;;;;10.36;78.74;98552.91;5028332;28;20044;-63
2024/04/07 08:30:33;;;;;;;5.35;1.02;;;;;;;10.46;78.85;98543.78;5019570;28;20523;-63
2024/04/07 08:33:00;;;;;;;10.30;2.83;;;;;;;10.57;78.65;98543.75;5042435;28;20498;-63
2024/04/07 08:35:26;;;;;;;4.03;0.95;;;;;;;10.68;78.61;98550.88;5025343;28;20037;-62
2024/04/07 08:37:53;;;;;;;7.57;1.90;;;;;;;10.82;78.98;98548.06;5026981;28;20042;-61
2024/04/07 08:40:20;;;;;;;3.05;0.80;;;;;;;11.00;79.09;98570.16;5026427;28;20049;-62
2024/04/07 08:42:46;;;;;;;6.07;1.23;;;;;;;11.19;78.96;98532.91;5030821;28;20048;-60
2024/04/07 08:45:14;;;;;;;3.90;1.25;;;;;;;11.37;78.84;98559.31;5022298;28;20506;-61
2024/04/07 08:47:42;;;;;;;5.07;1.13;;;;;;;11.61;79.36;98565.91;5010093;28;20049;-61
2024/04/07 08:50:13;;;;;;;7.97;1.42;;;;;;;12.03;80.67;98562.09;5031133;28;20041;-62
2024/04/07 08:52:44;;;;;;;9.30;1.48;;;;;;;12.63;79.39;98565.13;5030445;28;20041;-62
2024/04/07 08:55:10;;;;;;;20.98;2.53;;;;;;;13.40;78.73;98582.16;5031279;28;20052;-62
2024/04/07 08:57:39;;;;;;;6.75;1.52;;;;;;;14.27;76.56;98589.69;5030038;28;20535;-63
2024/04/07 09:00:08;;;;;;;4.10;1.10;;;;;;;14.96;73.29;98586.09;5033647;28;20045;-63
2024/04/07 09:02:36;;;;;;;6.15;1.40;;;;;;;15.53;70.33;98597.72;5021070;28;20051;-64
2024/04/07 09:05:04;;;;;;;5.47;1.17;;;;;;;15.66;67.88;98600.66;5029532;28;20056;-62
2024/04/07 09:07:30;;;;;;;13.50;2.30;;;;;;;15.90;66.02;98607.69;5024811;28;20052;-62
2024/04/07 09:09:56;;;;;;;5.47;1.02;;;;;;;16.47;64.54;98631.50;5035182;28;20055;-63
2024/04/07 09:12:22;;;;;;;7.53;1.08;;;;;;;16.81;62.35;98612.31;5001931;28;20060;-63
2024/04/07 09:14:49;;;;;;;6.68;1.65;;;;;;;17.18;60.08;98624.91;5035993;28;20033;-62
2024/04/07 09:17:16;;;;;;;8.13;2.90;;;;;;;17.35;58.77;98621.63;5033074;28;20418;-62
2024/04/07 09:19:42;;;;;;;7.07;2.40;;;;;;;17.32;57.34;98602.13;5047041;28;20055;-62
2024/04/07 09:22:08;;;;;;;8.20;1.42;;;;;;;17.37;56.53;98621.16;5035070;28;20061;-62
2024/04/07 09:24:36;;;;;;;10.75;1.50;;;;;;;17.64;55.35;98625.22;5028987;28;20048;-65
2024/04/07 09:27:06;;;;;;;8.20;1.90;;;;;;;17.81;54.22;98622.34;5029192;28;20049;-62
2024/04/07 09:29:34;;;;;;;5.97;1.00;;;;;;;17.74;53.32;98616.97;5037882;28;20044;-61
2024/04/07 09:32:01;;;;;;;6.82;1.20;;;;;;;17.97;53.05;98647.47;5023262;28;20061;-62
2024/04/07 09:34:32;;;;;;;3.95;1.10;;;;;;;18.08;51.68;98620.69;5028257;28;20055;-62
2024/04/07 09:37:05;;;;;;;7.95;0.80;;;;;;;18.22;50.62;98625.06;5031033;28;20040;-62
2024/04/07 09:39:32;;;;;;;8.85;1.73;;;;;;;18.21;49.29;98606.72;5028417;28;20056;-62
2024/04/07 09:42:03;;;;;;;6.85;2.40;;;;;;;18.30;49.08;98639.63;5047482;28;20758;-62
2024/04/07 09:44:34;;;;;;;6.38;1.33;;;;;;;18.60;48.86;98642.69;5040240;28;20060;-62
2024/04/07 09:47:09;;;;;;;7.50;1.30;;;;;;;18.79;48.59;98644.47;5031976;28;20048;-62
2024/04/07 09:49:38;;;;;;;6.95;1.20;;;;;;;19.20;48.04;98654.66;5028513;28;20057;-63
2024/04/07 09:52:05;;;;;;;5.15;1.48;;;;;;;19.24;46.73;98632.13;5031103;28;20414;-62
2024/04/07 09:54:50;;;;;;;11.05;1.83;;;;;;;19.28;47.22;98649.59;5014038;28;20053;-63
2024/04/07 09:57:17;;;;;;;5.03;1.40;;;;;;;19.54;46.21;98651.09;5031779;28;20049;-62
2024/04/07 09:59:44;;;;;;;6.40;1.45;;;;;;;19.49;45.11;98662.91;5028277;28;20056;-63
2024/04/07 10:02:12;;;;;;;6.63;1.85;;;;;;;19.12;44.86;98652.56;5027527;28;20068;-63
2024/04/07 10:04:39;;;;;;;6.75;1.45;;;;;;;18.52;45.84;98640.56;5028567;28;20049;-62
2024/04/07 10:07:08;;;;;;;6.93;1.60;;;;;;;18.38;46.29;98647.38;5022084;28;20057;-62
2024/04/07 10:09:35;;;;;;;8.73;1.35;;;;;;;18.45;45.36;98632.38;5039577;28;20040;-63
2024/04/07 10:12:02;;;;;;;9.07;2.28;;;;;;;18.40;45.62;98635.72;5028119;28;20060;-62
2024/04/07 10:14:39;;;;;;;9.73;1.67;;;;;;;18.52;45.29;98643.38;5033099;28;20055;-62
2024/04/07 10:17:07;;;;;;;8.13;1.42;;;;;;;18.99;45.07;98641.38;5028411;28;20411;-61
2024/04/07 10:19:33;;;;;;;8.55;1.58;;;;;;;19.27;44.89;98643.19;5014777;28;20048;-63
2024/04/07 10:22:04;;;;;;;7.50;1.33;;;;;;;19.03;44.87;98646.88;5047895;28;20045;-62
2024/04/07 10:24:30;;;;;;;6.30;1.13;;;;;;;18.11;45.04;98638.63;5035675;28;20064;-61
2024/04/07 10:27:01;;;;;;;6.15;1.30;;;;;;;17.89;46.01;98638.50;5030056;28;20044;-61
2024/04/07 10:29:30;;;;;;;8.18;1.58;;;;;;;18.07;46.00;98626.75;5027309;28;20520;-61
2024/04/07 10:31:56;;;;;;;5.90;1.38;;;;;;;18.00;45.77;98652.19;5037559;28;20057;-61
2024/04/07 10:34:23;;;;;;;11.05;1.23;;;;;;;17.94;45.79;98648.34;5021045;28;20057;-61
2024/04/07 10:36:55;;;;;;;3.83;1.15;;;;;;;17.49;45.74;98643.63;5030148;28;20048;-62
2024/04/07 10:39:21;;;;;;;;;;;;;;;17.40;46.10;98637.06;5039208;28;20044;-61
2024/04/07 10:41:47;;;;;;;9.23;1.55;;;;;;;17.66;45.62;98649.94;5040134;28;19921;-62
2024/04/07 10:44:14;;;;;;;9.15;1.63;;;;;;;17.33;46.34;98631.69;5028073;28;20049;-63
2024/04/07 10:46:40;;;;;;;5.05;1.30;;;;;;;17.43;46.16;98645.38;5043945;28;20049;-62
2024/04/07 10:49:07;;;;;;;3.45;0.85;;;;;;;17.53;45.80;98652.72;5027652;28;20700;-61
2024/04/07 10:51:33;;;;;;;5.28;0.90;;;;;;;17.56;46.07;98659.44;5026095;28;20053;-62
2024/04/07 10:54:03;;;;;;;7.15;1.33;;;;;;;17.48;46.52;98656.03;5047372;28;20065;-61
2024/04/07 10:56:30;;;;;;;5.05;1.30;;;;;;;17.27;46.76;98653.81;5047080;28;20412;-62
2024/04/07 10:58:57;;;;;;;5.80;1.38;;;;;;;17.12;47.38;98647.03;5035936;28;20420;-61
2024/04/07 11:01:24;;;;;;;4.63;1.05;;;;;;;16.92;48.16;98644.34;5027785;28;20061;-61
2024/04/07 11:03:51;;;;;;;4.63;1.08;;;;;;;16.74;48.81;98640.44;5018533;28;20405;-62
2024/04/07 11:06:20;;;;;;;10.70;1.20;;;;;;;16.51;49.56;98665.72;5023046;28;20056;-63
2024/04/07 11:08:48;;;;;;;7.03;1.20;;;;;;;16.19;50.34;98656.09;5028384;28;20041;-63
2024/04/07 11:11:14;;;;;;;7.00;1.58;;;;;;;15.96;51.14;98652.63;5025066;28;20045;-62
2024/04/07 11:13:41;;;;;;;3.45;1.20;;;;;;;15.88;51.34;98652.00;5034377;28;20056;-62
2024/04/07 11:16:10;;;;;;;7.38;1.25;;;;;;;15.78;51.80;98673.31;5036305;28;20049;-62
2024/04/07 11:18:37;;;;;;;4.90;0.90;;;;;;;15.66;51.81;98654.44;5034029;28;20041;-61
2024/04/07 11:21:04;;;;;;;3.95;0.93;;;;;;;15.57;51.98;98659.00;5050363;28;20048;-61
2024/04/07 11:23:32;;;;;;;3.47;0.70;;;;;;;15.47;52.18;98660.81;5038213;28;20056;-61
2024/04/07 11:25:59;;;;;;;2.75;0.80;;;;;;;15.37;51.62;98672.13;5032001;28;20041;-62
2024/04/07 11:28:26;;;;;;;3.63;0.68;;;;;;;15.27;51.15;98669.09;5042769;28;20633;-62
2024/04/07 11:30:55;;;;;;;4.18;0.80;;;;;;;15.18;51.51;98651.38;5034327;28;20060;-62
2024/04/07 11:33:23;;;;;;;2.28;0.60;;;;;;;15.13;51.70;98663.00;5031651;28;20056;-63
2024/04/07 11:35:50;;;;;;;0.50;0.28;;;;;;;15.01;51.54;98675.56;5025740;28;20041;-62
2024/04/07 11:38:16;;;;;;;4.88;0.40;;;;;;;14.87;51.58;98675.81;5032150;28;20037;-63
2024/04/07 11:40:43;;;;;;;3.63;0.60;;;;;;;14.72;51.43;98677.25;5041592;28;20060;-63